createdAt,value
2023-02-23T00:01:51.499Z,100187.44
2023-02-23T00:04:18.736Z,100186.22
2023-02-23T00:06:45.671Z,100186.13
2023-02-23T00:09:22.867Z,100187.06
2023-02-23T00:11:57.184Z,100188.09
2023-02-23T00:14:29.092Z,100193.72
2023-02-23T00:16:56.421Z,100180.44
2023-02-23T00:19:24.739Z,100183.38
2023-02-23T00:21:52.092Z,100180.91
2023-02-23T00:24:20.424Z,100177.88
2023-02-23T00:26:51.078Z,100177.25
2023-02-23T00:29:21.002Z,100184.50
2023-02-23T00:31:49.250Z,100184.66
2023-02-23T00:34:20.978Z,100178.22
2023-02-23T00:36:55.109Z,100183.59
2023-02-23T00:39:26.431Z,100175.78
2023-02-23T00:41:55.341Z,100177.41
2023-02-23T00:44:23.698Z,100176.28
2023-02-23T00:46:51.700Z,100175.97
2023-02-23T00:49:20.360Z,100175.47
2023-02-23T00:51:47.583Z,100172.72
2023-02-23T00:54:15.852Z,100176.63
2023-02-23T00:56:42.605Z,100167.78
2023-02-23T00:59:10.080Z,100177.56
2023-02-23T01:01:38.394Z,100173.72
2023-02-23T01:04:07.106Z,100175.34
2023-02-23T01:06:37.245Z,100170.78
2023-02-23T01:09:11.493Z,100171.78
2023-02-23T01:11:38.607Z,100178.78
2023-02-23T01:14:05.211Z,100179.09
2023-02-23T01:16:33.747Z,100178.84
2023-02-23T01:19:03.515Z,100175.16
2023-02-23T01:21:36.259Z,100174.09
2023-02-23T01:24:04.160Z,100164.84
2023-02-23T01:26:36.249Z,100172.97
2023-02-23T01:29:08.811Z,100167.81
2023-02-23T01:31:39.321Z,100171.03
2023-02-23T01:34:07.131Z,100174.50
2023-02-23T01:36:38.935Z,100173.28
2023-02-23T01:39:08.549Z,100172.38
2023-02-23T01:41:36.727Z,100178.47
2023-02-23T01:44:07.903Z,100173.66
2023-02-23T01:46:39.105Z,100173.28
2023-02-23T01:49:10.515Z,100173.44
2023-02-23T01:51:43.004Z,100169.59
2023-02-23T01:54:16.036Z,100164.72
2023-02-23T01:56:49.156Z,100159.50
2023-02-23T01:59:17.756Z,100160.41
2023-02-23T02:01:45.172Z,100159.75
2023-02-23T02:04:16.806Z,100156.72
2023-02-23T02:06:45.797Z,100161.94
2023-02-23T02:09:19.470Z,100158.38
2023-02-23T02:11:54.053Z,100158.38
2023-02-23T02:14:30.762Z,100157.72
2023-02-23T02:17:25.425Z,100154.84
2023-02-23T02:20:14.786Z,100156.22
2023-02-23T02:23:08.374Z,100150.22
2023-02-23T02:26:05.141Z,100145.50
2023-02-23T02:28:50.423Z,100141.47
2023-02-23T02:32:01.401Z,100145.53
2023-02-23T02:35:11.421Z,100149.91
2023-02-23T02:37:48.563Z,100139.91
2023-02-23T02:40:28.422Z,100140.72
2023-02-23T02:43:13.032Z,100134.09
2023-02-23T02:45:43.072Z,100139.41
2023-02-23T02:48:19.615Z,100133.41
2023-02-23T02:50:55.575Z,100139.66
2023-02-23T02:53:55.816Z,100138.78
2023-02-23T02:56:26.371Z,100132.41
2023-02-23T02:58:54.704Z,100128.97
2023-02-23T03:01:40.196Z,100130.66
2023-02-23T03:04:55.329Z,100123.72
2023-02-23T03:07:50.267Z,100130.44
2023-02-23T03:10:42.599Z,100128.88
2023-02-23T03:13:43.236Z,100131.16
2023-02-23T03:17:08.320Z,100123.50
2023-02-23T03:20:04.175Z,100125.28
2023-02-23T03:22:56.561Z,100127.59
2023-02-23T03:25:47.877Z,100122.41
2023-02-23T03:28:48.292Z,100118.09
2023-02-23T03:31:45.739Z,100123.22
2023-02-23T03:34:38.616Z,100122.72
2023-02-23T03:37:33.483Z,100127.47
2023-02-23T03:40:26.963Z,100128.03
2023-02-23T03:43:16.340Z,100125.78
2023-02-23T03:46:04.258Z,100133.16
2023-02-23T03:48:55.058Z,100130.78
2023-02-23T03:51:43.947Z,100131.09
2023-02-23T03:54:37.019Z,100131.28
2023-02-23T03:57:26.907Z,100130.47
2023-02-23T04:00:18.387Z,100127.59
2023-02-23T04:03:08.747Z,100129.84
2023-02-23T04:05:58.448Z,100125.69
2023-02-23T04:08:52.123Z,100129.66
2023-02-23T04:12:04.341Z,100134.34
2023-02-23T04:14:41.881Z,100134.81
2023-02-23T04:17:10.362Z,100138.81
2023-02-23T04:19:37.210Z,100139.69
2023-02-23T04:22:03.856Z,100138.81
2023-02-23T04:24:30.469Z,100132.31
2023-02-23T04:26:57.074Z,100134.84
2023-02-23T04:29:24.120Z,100134.34
2023-02-23T04:31:50.858Z,100136.84
2023-02-23T04:34:17.589Z,100141.91
2023-02-23T04:36:44.164Z,100138.72
2023-02-23T04:39:10.781Z,100138.03
2023-02-23T04:41:37.503Z,100140.28
2023-02-23T04:44:04.864Z,100145.75
2023-02-23T04:46:31.625Z,100139.00
2023-02-23T04:48:58.273Z,100140.19
2023-02-23T04:51:30.079Z,100150.13
2023-02-23T04:53:56.637Z,100146.84
2023-02-23T04:56:23.288Z,100146.38
2023-02-23T04:58:50.400Z,100142.31
2023-02-23T05:01:17.843Z,100154.28
2023-02-23T05:03:44.652Z,100159.34
2023-02-23T05:06:12.669Z,100156.09
2023-02-23T05:08:39.417Z,100147.09
2023-02-23T05:11:07.310Z,100155.25
2023-02-23T05:13:34.361Z,100153.31
2023-02-23T05:16:01.130Z,100147.78
2023-02-23T05:18:27.811Z,100146.16
2023-02-23T05:21:02.174Z,100148.03
2023-02-23T05:23:28.816Z,100145.59
2023-02-23T05:26:01.267Z,100148.69
2023-02-23T05:28:27.924Z,100146.66
2023-02-23T05:30:54.684Z,100142.66
2023-02-23T05:33:21.805Z,100143.91
2023-02-23T05:35:48.948Z,100140.78
2023-02-23T05:38:15.622Z,100146.22
2023-02-23T05:40:42.309Z,100142.66
2023-02-23T05:43:08.968Z,100146.91
2023-02-23T05:45:40.359Z,100146.72
2023-02-23T05:48:07.793Z,100148.69
2023-02-23T05:50:34.578Z,100149.50
2023-02-23T05:53:01.252Z,100156.97
2023-02-23T05:55:28.242Z,100150.47
2023-02-23T05:57:55.436Z,100152.03
2023-02-23T06:00:22.470Z,100156.56
2023-02-23T06:02:52.282Z,100151.75
2023-02-23T06:05:19.413Z,100151.44
2023-02-23T06:07:46.876Z,100152.25
2023-02-23T06:10:14.390Z,100152.75
2023-02-23T06:12:41.122Z,100153.56
2023-02-23T06:15:08.429Z,100150.88
2023-02-23T06:17:35.844Z,100162.34
2023-02-23T06:20:04.853Z,100161.88
2023-02-23T06:22:31.573Z,100166.44
2023-02-23T06:24:58.366Z,100163.47
2023-02-23T06:27:26.217Z,100161.72
2023-02-23T06:29:52.902Z,100165.44
2023-02-23T06:32:19.615Z,100168.28
2023-02-23T06:34:51.078Z,100174.31
2023-02-23T06:37:17.819Z,100172.69
2023-02-23T06:39:44.719Z,100179.75
2023-02-23T06:42:11.300Z,100178.88
2023-02-23T06:44:38.049Z,100179.75
2023-02-23T06:47:06.060Z,100175.28
2023-02-23T06:49:33.051Z,100185.78
2023-02-23T06:52:00.123Z,100183.16
2023-02-23T06:54:26.781Z,100182.91
2023-02-23T06:56:56.594Z,100188.88
2023-02-23T06:59:24.236Z,100193.97
2023-02-23T07:01:51.075Z,100196.34
2023-02-23T07:04:17.924Z,100199.03
2023-02-23T07:06:44.638Z,100200.75
2023-02-23T07:09:11.347Z,100201.25
2023-02-23T07:11:38.060Z,100203.84
2023-02-23T07:14:04.647Z,100203.00
2023-02-23T07:16:32.121Z,100205.63
2023-02-23T07:18:58.990Z,100205.63
2023-02-23T07:21:25.630Z,100211.06
2023-02-23T07:23:52.219Z,100214.25
2023-02-23T07:26:18.867Z,100216.25
2023-02-23T07:28:45.604Z,100213.53
2023-02-23T07:31:12.315Z,100223.13
2023-02-23T07:33:38.965Z,100221.50
2023-02-23T07:36:05.882Z,100221.25
2023-02-23T07:38:32.781Z,100225.50
2023-02-23T07:40:59.653Z,100219.38
2023-02-23T07:43:26.290Z,100225.03
2023-02-23T07:45:53.005Z,100215.59
2023-02-23T07:48:20.643Z,100223.09
2023-02-23T07:50:47.917Z,100219.41
2023-02-23T07:53:15.185Z,100219.34
2023-02-23T07:55:41.847Z,100224.38
2023-02-23T07:58:08.997Z,100226.16
2023-02-23T08:00:36.912Z,100221.94
2023-02-23T08:03:03.603Z,100223.88
2023-02-23T08:05:30.273Z,100228.59
2023-02-23T08:07:58.511Z,100226.97
2023-02-23T08:10:25.735Z,100233.41
2023-02-23T08:12:52.589Z,100232.34
2023-02-23T08:15:19.332Z,100233.91
2023-02-23T08:17:45.966Z,100239.44
2023-02-23T08:20:12.726Z,100243.03
2023-02-23T08:22:48.871Z,100242.84
2023-02-23T08:25:17.409Z,100246.34
2023-02-23T08:27:44.050Z,100242.94
2023-02-23T08:30:11.535Z,100238.38
2023-02-23T08:32:38.315Z,100245.53
2023-02-23T08:35:05.630Z,100242.38
2023-02-23T08:37:32.721Z,100245.22
2023-02-23T08:40:00.606Z,100243.19
2023-02-23T08:42:27.813Z,100251.41
2023-02-23T08:44:54.564Z,100249.34
2023-02-23T08:47:23.379Z,100248.59
2023-02-23T08:49:51.014Z,100249.06
2023-02-23T08:52:17.944Z,100253.97
2023-02-23T08:54:44.591Z,100251.94
2023-02-23T08:57:12.620Z,100248.84
2023-02-23T08:59:41.162Z,100252.81
2023-02-23T09:02:12.792Z,100248.59
2023-02-23T09:04:41.888Z,100252.44
2023-02-23T09:07:13.042Z,100253.72
2023-02-23T09:09:39.783Z,100251.00
2023-02-23T09:12:06.519Z,100250.75
2023-02-23T09:14:33.451Z,100250.72
2023-02-23T09:17:00.098Z,100262.19
2023-02-23T09:19:27.529Z,100257.59
2023-02-23T09:21:54.327Z,100254.66
2023-02-23T09:24:21.723Z,100251.66
2023-02-23T09:26:49.632Z,100251.19
2023-02-23T09:29:16.326Z,100250.19
2023-02-23T09:31:43.739Z,100259.28
2023-02-23T09:34:12.583Z,100265.94
2023-02-23T09:36:39.349Z,100265.22
2023-02-23T09:39:05.954Z,100269.31
2023-02-23T09:41:51.874Z,100264.41
2023-02-23T09:44:51.240Z,100270.44
2023-02-23T09:47:46.113Z,100274.19
2023-02-23T09:50:22.546Z,100276.63
2023-02-23T09:52:58.173Z,100269.56
2023-02-23T09:55:26.420Z,100277.63
2023-02-23T09:57:54.049Z,100264.63
2023-02-23T10:00:27.396Z,100268.78
2023-02-23T10:03:08.355Z,100268.91
2023-02-23T10:05:43.873Z,100270.50
2023-02-23T10:08:28.762Z,100270.41
2023-02-23T10:11:02.899Z,100272.88
2023-02-23T10:13:51.340Z,100278.31
2023-02-23T10:16:38.550Z,100276.13
2023-02-23T10:19:29.273Z,100277.59
2023-02-23T10:22:03.333Z,100276.16
2023-02-23T10:24:36.947Z,100285.84
2023-02-23T10:27:10.284Z,100281.41
2023-02-23T10:29:45.600Z,100281.97
2023-02-23T10:32:22.863Z,100281.34
2023-02-23T10:34:54.615Z,100280.44
2023-02-23T10:37:21.604Z,100282.69
2023-02-23T10:39:49.823Z,100281.56
2023-02-23T10:42:21.836Z,100281.59
2023-02-23T10:44:50.020Z,100295.19
2023-02-23T10:47:22.365Z,100292.03
2023-02-23T10:49:52.283Z,100293.41
2023-02-23T10:52:27.523Z,100290.97
2023-02-23T10:54:54.228Z,100287.81
2023-02-23T10:57:27.796Z,100290.28
2023-02-23T11:00:19.377Z,100288.22
2023-02-23T11:02:47.686Z,100290.31
2023-02-23T11:05:50.437Z,100290.44
2023-02-23T11:08:25.069Z,100287.97
2023-02-23T11:11:02.028Z,100289.63
2023-02-23T11:13:36.017Z,100288.53
2023-02-23T11:16:07.214Z,100292.84
2023-02-23T11:18:34.019Z,100277.97
2023-02-23T11:21:00.810Z,100272.31
2023-02-23T11:23:35.695Z,100275.03
2023-02-23T11:26:06.193Z,100278.00
2023-02-23T11:28:43.297Z,100275.81
2023-02-23T11:31:20.425Z,100270.66
2023-02-23T11:33:48.302Z,100274.13
2023-02-23T11:36:17.988Z,100271.47
2023-02-23T11:38:47.320Z,100265.56
2023-02-23T11:41:23.305Z,100265.28
2023-02-23T11:44:02.827Z,100263.91
2023-02-23T11:46:33.344Z,100259.84
2023-02-23T11:49:14.695Z,100262.78
2023-02-23T11:51:48.972Z,100257.94
2023-02-23T11:54:27.369Z,100252.28
2023-02-23T11:56:58.068Z,100247.69
2023-02-23T11:59:45.175Z,100253.56
2023-02-23T12:02:23.027Z,100247.53
2023-02-23T12:04:53.964Z,100245.59
2023-02-23T12:07:34.811Z,100248.03
2023-02-23T12:10:12.734Z,100238.38
2023-02-23T12:12:50.212Z,100233.72
2023-02-23T12:15:48.410Z,100228.72
2023-02-23T12:18:20.980Z,100239.03
2023-02-23T12:20:50.646Z,100233.91
2023-02-23T12:23:22.359Z,100228.78
2023-02-23T12:26:00.549Z,100227.44
2023-02-23T12:28:41.502Z,100232.00
2023-02-23T12:31:25.971Z,100230.09
2023-02-23T12:33:59.043Z,100218.75
2023-02-23T12:36:35.348Z,100228.75
2023-02-23T12:39:40.000Z,100225.50
2023-02-23T12:42:15.674Z,100223.25
2023-02-23T12:45:02.835Z,100212.78
2023-02-23T12:47:37.046Z,100219.50
2023-02-23T12:50:13.506Z,100213.88
2023-02-23T12:52:50.953Z,100216.31
2023-02-23T12:55:29.167Z,100208.19
2023-02-23T12:58:08.015Z,100201.44
2023-02-23T13:01:01.360Z,100200.16
2023-02-23T13:03:50.005Z,100203.34
2023-02-23T13:06:50.458Z,100196.88
2023-02-23T13:09:51.497Z,100206.88
2023-02-23T13:12:36.230Z,100203.88
2023-02-23T13:15:34.362Z,100199.00
2023-02-23T13:18:24.481Z,100203.06
2023-02-23T13:21:39.493Z,100210.34
2023-02-23T13:24:14.328Z,100211.44
2023-02-23T13:27:01.732Z,100211.41
2023-02-23T13:29:37.866Z,100211.97
2023-02-23T13:32:09.808Z,100208.19
2023-02-23T13:34:44.208Z,100210.31
2023-02-23T13:37:14.811Z,100203.06
2023-02-23T13:39:47.766Z,100211.69
2023-02-23T13:42:40.847Z,100210.63
2023-02-23T13:45:23.098Z,100204.38
2023-02-23T13:47:52.884Z,100208.19
2023-02-23T13:50:29.846Z,100206.03
2023-02-23T13:53:04.774Z,100207.13
2023-02-23T13:55:49.635Z,100203.88
2023-02-23T13:58:28.862Z,100205.50
2023-02-23T14:01:16.513Z,100210.09
2023-02-23T14:04:04.196Z,100206.03
2023-02-23T14:06:34.150Z,100206.84
2023-02-23T14:09:09.612Z,100203.06
2023-02-23T14:11:53.552Z,100198.44
2023-02-23T14:14:32.849Z,100198.97
2023-02-23T14:17:14.733Z,100202.75
2023-02-23T14:19:43.137Z,100198.97
2023-02-23T14:22:18.436Z,100197.06
2023-02-23T14:24:45.561Z,100194.63
2023-02-23T14:27:42.574Z,100194.38
2023-02-23T14:30:12.235Z,100194.16
2023-02-23T14:32:42.004Z,100204.38
2023-02-23T14:35:33.596Z,100201.69
2023-02-23T14:38:24.853Z,100206.84
2023-02-23T14:40:54.637Z,100196.53
2023-02-23T14:43:38.154Z,100202.72
2023-02-23T14:46:13.139Z,100201.66
2023-02-23T14:48:44.632Z,100194.88
2023-02-23T14:51:24.850Z,100191.66
2023-02-23T14:53:53.717Z,100191.94
2023-02-23T14:56:24.686Z,100191.66
2023-02-23T14:58:54.663Z,100191.94
2023-02-23T15:01:39.517Z,100183.84
2023-02-23T15:04:16.365Z,100179.50
2023-02-23T15:06:46.871Z,100182.75
2023-02-23T15:09:30.102Z,100186.03
2023-02-23T15:11:59.240Z,100181.16
2023-02-23T15:14:28.166Z,100189.78
2023-02-23T15:16:56.606Z,100188.44
2023-02-23T15:19:33.523Z,100193.56
2023-02-23T15:22:02.057Z,100200.59
2023-02-23T15:24:40.763Z,100198.97
2023-02-23T15:27:16.568Z,100201.66
2023-02-23T15:29:43.431Z,100197.34
2023-02-23T15:32:16.807Z,100200.56
2023-02-23T15:34:43.645Z,100202.41
2023-02-23T15:37:20.168Z,100205.94
2023-02-23T15:39:56.899Z,100201.66
2023-02-23T15:42:36.280Z,100204.84
2023-02-23T15:45:11.608Z,100199.47
2023-02-23T15:47:38.408Z,100202.72
2023-02-23T15:50:16.495Z,100194.91
2023-02-23T15:52:50.307Z,100197.59
2023-02-23T15:55:29.892Z,100194.63
2023-02-23T15:57:59.076Z,100198.13
2023-02-23T16:00:44.826Z,100200.56
2023-02-23T16:03:30.561Z,100199.50
2023-02-23T16:06:19.171Z,100192.97
2023-02-23T16:09:22.177Z,100208.09
2023-02-23T16:12:08.933Z,100195.16
2023-02-23T16:14:45.053Z,100198.13
2023-02-23T16:17:24.216Z,100191.13
2023-02-23T16:19:51.395Z,100196.50
2023-02-23T16:22:27.038Z,100197.06
2023-02-23T16:25:00.102Z,100198.09
2023-02-23T16:27:28.639Z,100195.69
2023-02-23T16:30:04.662Z,100194.59
2023-02-23T16:32:37.762Z,100194.31
2023-02-23T16:35:19.642Z,100204.31
2023-02-23T16:38:01.059Z,100200.00
2023-02-23T16:40:28.521Z,100198.59
2023-02-23T16:42:59.566Z,100197.78
2023-02-23T16:45:27.251Z,100201.56
2023-02-23T16:47:53.962Z,100210.75
2023-02-23T16:50:24.376Z,100211.50
2023-02-23T16:52:53.088Z,100204.75
2023-02-23T16:55:26.000Z,100215.56
2023-02-23T16:58:03.793Z,100212.53
2023-02-23T17:00:33.402Z,100215.22
2023-02-23T17:03:01.017Z,100210.63
2023-02-23T17:05:28.718Z,100209.88
2023-02-23T17:07:57.756Z,100212.72
2023-02-23T17:10:33.332Z,100221.69
2023-02-23T17:13:05.727Z,100219.25
2023-02-23T17:15:36.556Z,100217.09
2023-02-23T17:18:05.206Z,100224.16
2023-02-23T17:20:32.665Z,100222.50
2023-02-23T17:23:01.374Z,100228.16
2023-02-23T17:25:28.719Z,100226.53
2023-02-23T17:27:57.259Z,100228.06
2023-02-23T17:30:25.426Z,100224.81
2023-02-23T17:32:54.549Z,100223.53
2023-02-23T17:35:21.991Z,100232.09
2023-02-23T17:37:49.000Z,100230.00
2023-02-23T17:40:28.902Z,100230.50
2023-02-23T17:42:57.738Z,100232.13
2023-02-23T17:45:24.846Z,100231.56
2023-02-23T17:47:51.767Z,100230.31
2023-02-23T17:50:22.555Z,100226.16
2023-02-23T17:52:50.161Z,100228.84
2023-02-23T17:55:17.765Z,100232.31
2023-02-23T17:57:45.214Z,100231.50
2023-02-23T18:00:13.900Z,100232.84
2023-02-23T18:02:42.801Z,100232.84
2023-02-23T18:05:11.299Z,100233.66
2023-02-23T18:07:38.379Z,100229.00
2023-02-23T18:10:06.242Z,100226.53
2023-02-23T18:12:34.294Z,100226.88
2023-02-23T18:15:01.359Z,100228.50
2023-02-23T18:17:28.522Z,100225.75
2023-02-23T18:19:55.403Z,100234.28
2023-02-23T18:22:22.065Z,100234.06
2023-02-23T18:24:48.679Z,100227.50
2023-02-23T18:27:15.441Z,100230.31
2023-02-23T18:29:42.119Z,100232.19
2023-02-23T18:32:08.955Z,100229.75
2023-02-23T18:34:36.334Z,100237.59
2023-02-23T18:37:04.114Z,100231.94
2023-02-23T18:39:32.740Z,100237.03
2023-02-23T18:42:00.545Z,100234.28
2023-02-23T18:44:27.566Z,100235.34
2023-02-23T18:46:54.845Z,100232.59
2023-02-23T18:49:23.922Z,100229.47
2023-02-23T18:51:51.375Z,100225.28
2023-02-23T18:54:18.590Z,100226.94
2023-02-23T18:56:47.427Z,100220.38
2023-02-23T18:59:16.159Z,100219.31
2023-02-23T19:01:45.358Z,100222.03
2023-02-23T19:04:13.176Z,100227.88
2023-02-23T19:06:43.707Z,100227.38
2023-02-23T19:09:12.423Z,100227.66
2023-02-23T19:11:40.718Z,100224.16
2023-02-23T19:14:13.393Z,100215.00
2023-02-23T19:16:41.174Z,100223.91
2023-02-23T19:19:08.871Z,100222.53
2023-02-23T19:21:36.395Z,100213.28
2023-02-23T19:24:04.856Z,100216.06
2023-02-23T19:26:33.652Z,100218.13
2023-02-23T19:29:00.524Z,100212.19
2023-02-23T19:31:28.351Z,100218.13
2023-02-23T19:33:57.032Z,100213.28
2023-02-23T19:36:29.648Z,100219.22
2023-02-23T19:39:05.661Z,100217.44
2023-02-23T19:41:33.841Z,100214.69
2023-02-23T19:44:00.951Z,100219.28
2023-02-23T19:46:27.982Z,100211.25
2023-02-23T19:48:56.053Z,100223.56
2023-02-23T19:51:23.805Z,100223.94
2023-02-23T19:53:53.623Z,100214.34
2023-02-23T19:56:22.200Z,100218.38
2023-02-23T19:58:49.346Z,100225.03
2023-02-23T20:01:18.812Z,100225.56
2023-02-23T20:03:49.453Z,100225.28
2023-02-23T20:06:17.650Z,100235.78
2023-02-23T20:08:45.318Z,100234.94
2023-02-23T20:11:12.165Z,100235.94
2023-02-23T20:13:39.154Z,100240.63
2023-02-23T20:16:11.817Z,100238.38
2023-02-23T20:18:40.123Z,100243.03
2023-02-23T20:21:18.492Z,100237.63
2023-02-23T20:23:47.220Z,100245.31
2023-02-23T20:26:19.906Z,100245.50
2023-02-23T20:28:46.936Z,100240.47
2023-02-23T20:31:18.088Z,100234.03
2023-02-23T20:33:44.927Z,100241.00
2023-02-23T20:36:14.705Z,100247.22
2023-02-23T20:38:42.244Z,100245.59
2023-02-23T20:41:08.985Z,100253.41
2023-02-23T20:43:37.619Z,100249.66
2023-02-23T20:46:04.840Z,100248.41
2023-02-23T20:48:34.477Z,100242.34
2023-02-23T20:51:01.820Z,100249.91
2023-02-23T20:53:29.826Z,100247.34
2023-02-23T20:55:56.797Z,100243.56
2023-02-23T20:58:24.910Z,100243.56
2023-02-23T21:00:56.962Z,100234.94
2023-02-23T21:03:25.258Z,100234.88
2023-02-23T21:05:52.557Z,100240.13
2023-02-23T21:08:19.884Z,100249.34
2023-02-23T21:10:48.666Z,100244.69
2023-02-23T21:13:16.633Z,100244.81
2023-02-23T21:15:44.705Z,100242.13
2023-02-23T21:18:11.787Z,100243.84
2023-02-23T21:20:39.507Z,100243.69
2023-02-23T21:23:06.377Z,100241.06
2023-02-23T21:25:33.158Z,100246.22
2023-02-23T21:28:02.722Z,100248.72
2023-02-23T21:30:30.061Z,100253.41
2023-02-23T21:32:57.794Z,100249.97
2023-02-23T21:35:24.732Z,100254.19
2023-02-23T21:37:51.834Z,100256.91
2023-02-23T21:40:20.863Z,100258.84
2023-02-23T21:42:48.084Z,100257.47
2023-02-23T21:45:15.282Z,100259.25
2023-02-23T21:47:44.658Z,100255.03
2023-02-23T21:50:15.560Z,100255.56
2023-02-23T21:52:43.884Z,100249.78
2023-02-23T21:55:21.442Z,100252.47
2023-02-23T21:57:49.228Z,100255.22
2023-02-23T22:00:16.364Z,100248.06
2023-02-23T22:02:46.510Z,100253.72
2023-02-23T22:05:15.486Z,100243.44
2023-02-23T22:07:48.085Z,100245.59
2023-02-23T22:10:14.955Z,100248.59
2023-02-23T22:12:41.761Z,100241.47
2023-02-23T22:15:10.238Z,100251.44
2023-02-23T22:17:38.578Z,100246.31
2023-02-23T22:20:07.169Z,100257.09
2023-02-23T22:22:37.112Z,100255.94
2023-02-23T22:25:04.443Z,100252.19
2023-02-23T22:27:31.817Z,100252.81
2023-02-23T22:30:01.846Z,100244.13
2023-02-23T22:32:33.375Z,100249.56
2023-02-23T22:35:00.950Z,100243.56
2023-02-23T22:37:31.852Z,100242.31
2023-02-23T22:40:01.712Z,100253.81
2023-02-23T22:42:30.307Z,100245.09
2023-02-23T22:44:57.111Z,100237.28
2023-02-23T22:47:24.300Z,100247.66
2023-02-23T22:49:51.092Z,100235.69
2023-02-23T22:52:17.775Z,100229.09
2023-02-23T22:54:45.649Z,100238.69
2023-02-23T22:57:13.168Z,100236.25
2023-02-23T22:59:39.856Z,100237.56
2023-02-23T23:02:06.725Z,100237.63
2023-02-23T23:04:34.427Z,100237.63
2023-02-23T23:07:01.601Z,100230.88
2023-02-23T23:09:28.382Z,100231.19
2023-02-23T23:11:56.599Z,100239.38
2023-02-23T23:14:23.593Z,100234.31
2023-02-23T23:16:50.290Z,100231.47
2023-02-23T23:19:23.679Z,100227.31
2023-02-23T23:21:56.132Z,100221.78
2023-02-23T23:24:24.431Z,100225.91
2023-02-23T23:26:55.439Z,100219.34
2023-02-23T23:29:23.592Z,100216.16
2023-02-23T23:31:51.639Z,100219.66
2023-02-23T23:34:21.605Z,100219.25
2023-02-23T23:36:49.784Z,100215.09
2023-02-23T23:39:18.245Z,100219.00
2023-02-23T23:41:47.804Z,100215.91
2023-02-23T23:44:17.261Z,100213.53
2023-02-23T23:46:45.688Z,100212.22
2023-02-23T23:49:18.384Z,100210.19
2023-02-23T23:51:50.159Z,100204.03
2023-02-23T23:54:23.500Z,100202.53
2023-02-23T23:56:50.721Z,100208.41
2023-02-23T23:59:20.261Z,100202.13
